createdAt,value
2023-05-19T00:00:37.634Z,82.50
2023-05-19T00:03:06.770Z,82.40
2023-05-19T00:05:40.772Z,82.60
2023-05-19T00:08:13.261Z,82.90
2023-05-19T00:10:42.364Z,82.70
2023-05-19T00:13:11.343Z,82.90
2023-05-19T00:15:40.335Z,83.20
2023-05-19T00:18:10.037Z,83.10
2023-05-19T00:20:40.511Z,83.20
2023-05-19T00:23:11.486Z,83.40
2023-05-19T00:25:39.720Z,83.50
2023-05-19T00:28:08.018Z,83.50
2023-05-19T00:30:36.311Z,83.60
2023-05-19T00:33:04.975Z,83.20
2023-05-19T00:35:33.483Z,83.10
2023-05-19T00:38:01.802Z,83.20
2023-05-19T00:40:33.284Z,82.90
2023-05-19T00:43:02.868Z,83.30
2023-05-19T00:45:31.621Z,83.20
2023-05-19T00:48:00.012Z,83.00
2023-05-19T00:50:29.218Z,83.00
2023-05-19T00:53:00.442Z,82.90
2023-05-19T00:55:34.548Z,83.00
2023-05-19T00:58:04.140Z,82.90
2023-05-19T01:00:33.158Z,83.10
2023-05-19T01:03:03.201Z,84.50
2023-05-19T01:05:31.550Z,83.80
2023-05-19T01:08:01.951Z,83.90
2023-05-19T01:10:30.344Z,84.10
2023-05-19T01:13:00.430Z,83.80
2023-05-19T01:15:29.784Z,84.00
2023-05-19T01:18:08.404Z,84.10
2023-05-19T01:20:42.757Z,84.40
2023-05-19T01:23:36.663Z,84.50
2023-05-19T01:26:43.354Z,84.40
2023-05-19T01:29:45.391Z,84.60
2023-05-19T01:32:22.011Z,84.90
2023-05-19T01:34:52.182Z,84.90
2023-05-19T01:37:22.800Z,85.10
2023-05-19T01:39:53.130Z,85.20
2023-05-19T01:42:23.176Z,85.60
2023-05-19T01:44:52.693Z,85.60
2023-05-19T01:47:22.861Z,85.80
2023-05-19T01:49:51.160Z,86.00
2023-05-19T01:52:19.448Z,86.50
2023-05-19T01:54:47.692Z,86.70
2023-05-19T01:57:27.594Z,86.90
2023-05-19T02:00:08.378Z,87.00
2023-05-19T02:03:04.260Z,86.80
2023-05-19T02:05:39.704Z,87.80
2023-05-19T02:08:21.794Z,87.40
2023-05-19T02:10:58.571Z,87.50
2023-05-19T02:13:37.747Z,88.00
2023-05-19T02:16:08.194Z,88.20
2023-05-19T02:18:37.982Z,88.40
2023-05-19T02:21:13.111Z,88.40
2023-05-19T02:23:42.006Z,88.60
2023-05-19T02:26:10.256Z,88.90
2023-05-19T02:28:39.910Z,89.10
2023-05-19T02:31:10.022Z,89.00
2023-05-19T02:33:39.580Z,89.00
2023-05-19T02:36:09.016Z,89.20
2023-05-19T02:38:37.604Z,89.40
2023-05-19T02:41:05.786Z,89.90
2023-05-19T02:43:34.020Z,89.80
2023-05-19T02:46:02.369Z,90.00
2023-05-19T02:48:30.560Z,90.00
2023-05-19T02:51:02.850Z,90.10
2023-05-19T02:53:33.868Z,90.60
2023-05-19T02:56:52.468Z,90.20
2023-05-19T03:00:32.104Z,90.70
2023-05-19T03:04:39.856Z,90.90
2023-05-19T03:11:52.080Z,91.20
2023-05-19T03:14:24.157Z,91.30
2023-05-19T03:16:52.791Z,91.20
2023-05-19T03:19:21.316Z,91.10
2023-05-19T03:21:52.719Z,91.20
2023-05-19T03:24:20.966Z,91.30
2023-05-19T03:26:49.328Z,91.40
2023-05-19T03:29:18.906Z,91.50
2023-05-19T03:31:47.391Z,91.60
2023-05-19T03:34:17.686Z,91.60
2023-05-19T03:36:46.011Z,91.80
2023-05-19T03:39:17.468Z,91.80
2023-05-19T03:41:47.331Z,92.10
2023-05-19T03:44:15.609Z,92.20
2023-05-19T03:46:46.123Z,92.40
2023-05-19T03:49:32.908Z,92.10
2023-05-19T03:52:19.878Z,92.10
2023-05-19T03:54:58.649Z,92.60
2023-05-19T03:57:27.009Z,92.40
2023-05-19T03:59:55.212Z,92.50
2023-05-19T04:02:24.871Z,92.60
2023-05-19T04:04:53.760Z,92.80
2023-05-19T04:07:22.214Z,93.00
2023-05-19T04:09:54.616Z,93.10
2023-05-19T04:12:22.856Z,93.10
2023-05-19T04:14:52.594Z,93.30
2023-05-19T04:17:21.659Z,93.30
2023-05-19T04:19:52.989Z,93.50
2023-05-19T04:22:23.660Z,93.60
2023-05-19T04:24:53.003Z,93.90
2023-05-19T04:27:21.907Z,93.90
2023-05-19T04:29:50.690Z,94.00
2023-05-19T04:32:20.637Z,94.30
2023-05-19T04:34:52.469Z,94.50
2023-05-19T04:37:26.678Z,94.60
2023-05-19T04:39:55.554Z,94.90
2023-05-19T04:42:30.714Z,95.00
2023-05-19T04:45:00.518Z,95.00
2023-05-19T04:47:30.546Z,94.90
2023-05-19T04:50:02.974Z,95.10
2023-05-19T04:52:32.183Z,95.00
2023-05-19T04:55:00.519Z,95.60
2023-05-19T04:57:29.349Z,95.50
2023-05-19T05:00:00.227Z,95.80
2023-05-19T05:02:34.906Z,96.00
2023-05-19T05:05:05.404Z,96.00
2023-05-19T05:07:33.823Z,96.30
2023-05-19T05:10:03.799Z,96.80
2023-05-19T05:12:34.426Z,96.50
2023-05-19T05:15:03.855Z,96.90
2023-05-19T05:17:32.904Z,97.20
2023-05-19T05:20:02.230Z,97.30
2023-05-19T05:22:33.581Z,97.60
2023-05-19T05:25:04.145Z,97.80
2023-05-19T05:27:32.763Z,97.80
2023-05-19T05:30:01.209Z,98.00
2023-05-19T05:32:30.073Z,98.40
2023-05-19T05:34:58.795Z,98.60
2023-05-19T05:37:27.333Z,98.80
2023-05-19T05:39:57.143Z,99.20
2023-05-19T05:42:28.175Z,99.70
2023-05-19T05:44:58.194Z,99.90
2023-05-19T05:47:27.425Z,99.90
2023-05-19T05:49:57.093Z,99.90
2023-05-19T05:52:31.885Z,99.90
2023-05-19T05:55:04.267Z,99.90
2023-05-19T05:57:35.483Z,99.90
2023-05-19T06:00:23.266Z,99.90
2023-05-19T06:02:55.434Z,99.90
2023-05-19T06:05:26.896Z,99.90
2023-05-19T06:07:58.961Z,99.90
2023-05-19T06:10:46.575Z,99.90
2023-05-19T06:13:22.655Z,99.90
2023-05-19T06:15:54.267Z,99.90
2023-05-19T06:18:28.382Z,99.90
2023-05-19T06:20:59.312Z,99.90
2023-05-19T06:23:29.224Z,99.90
2023-05-19T06:26:56.041Z,99.90
2023-05-19T06:40:13.379Z,99.80
2023-05-19T06:42:45.298Z,99.70
2023-05-19T06:45:22.413Z,99.40
2023-05-19T06:47:52.434Z,99.20
2023-05-19T06:53:53.933Z,98.80
2023-05-19T06:56:23.836Z,98.80
2023-05-19T06:58:54.046Z,98.90
2023-05-19T07:01:27.833Z,98.80
2023-05-19T07:04:27.234Z,98.80
2023-05-19T07:06:57.370Z,98.60
2023-05-19T07:09:32.517Z,98.20
2023-05-19T07:12:01.377Z,97.90
2023-05-19T07:14:38.858Z,97.80
2023-05-19T07:17:25.331Z,97.90
2023-05-19T07:19:59.396Z,97.90
2023-05-19T07:22:28.721Z,98.20
2023-05-19T07:24:57.196Z,97.70
2023-05-19T07:27:25.505Z,97.40
2023-05-19T07:29:55.134Z,97.40
2023-05-19T07:32:23.572Z,97.40
2023-05-19T07:34:51.811Z,97.40
2023-05-19T07:37:20.028Z,97.20
2023-05-19T07:40:04.756Z,97.30
2023-05-19T07:42:33.177Z,97.60
2023-05-19T07:45:12.799Z,97.70
2023-05-19T07:47:44.060Z,97.30
2023-05-19T07:50:12.419Z,97.10
2023-05-19T07:52:42.560Z,96.80
2023-05-19T07:55:13.577Z,96.60
2023-05-19T07:57:44.756Z,96.70
2023-05-19T08:00:18.708Z,96.80
2023-05-19T08:02:47.269Z,96.60
2023-05-19T08:05:39.978Z,96.40
2023-05-19T08:08:42.096Z,96.00
2023-05-19T08:11:10.327Z,95.70
2023-05-19T08:13:38.560Z,95.60
2023-05-19T08:16:08.427Z,95.50
2023-05-19T08:18:36.741Z,95.40
2023-05-19T08:21:06.507Z,95.10
2023-05-19T08:23:34.943Z,95.20
2023-05-19T08:26:03.255Z,95.40
2023-05-19T08:28:31.440Z,95.10
2023-05-19T08:30:59.866Z,95.20
2023-05-19T08:33:29.771Z,95.20
2023-05-19T08:36:01.625Z,95.00
2023-05-19T08:38:29.860Z,94.90
2023-05-19T08:40:58.635Z,94.80
2023-05-19T08:43:30.584Z,94.30
2023-05-19T08:46:01.854Z,94.30
2023-05-19T08:48:32.070Z,94.00
2023-05-19T08:51:12.791Z,93.90
2023-05-19T08:53:46.992Z,93.80
2023-05-19T08:56:21.823Z,93.30
2023-05-19T08:58:52.147Z,93.50
2023-05-19T09:01:24.052Z,93.70
2023-05-19T09:03:53.875Z,93.20
2023-05-19T09:06:22.231Z,93.20
2023-05-19T09:08:50.467Z,92.90
2023-05-19T09:11:18.633Z,92.70
2023-05-19T09:13:46.959Z,92.60
2023-05-19T09:16:16.521Z,92.50
2023-05-19T09:19:45.006Z,92.30
2023-05-19T09:22:11.433Z,91.80
2023-05-19T09:24:40.686Z,92.00
2023-05-19T09:27:09.498Z,91.90
2023-05-19T09:29:37.700Z,91.20
2023-05-19T09:32:07.196Z,90.90
2023-05-19T09:34:43.824Z,90.60
2023-05-19T09:37:14.453Z,90.50
2023-05-19T09:39:48.512Z,90.60
2023-05-19T09:42:16.978Z,90.30
2023-05-19T09:44:45.337Z,90.30
2023-05-19T09:47:13.548Z,89.80
2023-05-19T09:49:48.536Z,88.10
2023-05-19T09:52:17.111Z,87.60
2023-05-19T09:54:46.905Z,89.10
2023-05-19T09:57:15.105Z,89.30
2023-05-19T09:59:44.696Z,89.00
2023-05-19T10:02:20.760Z,89.70
2023-05-19T10:04:55.024Z,90.00
2023-05-19T10:07:25.782Z,90.00
2023-05-19T10:09:56.797Z,89.90
2023-05-19T10:12:28.004Z,89.50
2023-05-19T10:14:56.744Z,87.90
2023-05-19T10:17:28.363Z,88.10
2023-05-19T10:19:59.734Z,88.10
2023-05-19T10:22:28.440Z,87.70
2023-05-19T10:24:56.746Z,87.90
2023-05-19T10:27:28.870Z,86.40
2023-05-19T10:30:03.166Z,85.80
2023-05-19T10:32:34.409Z,85.80
2023-05-19T10:35:25.101Z,86.20
2023-05-19T10:38:06.066Z,84.40
2023-05-19T10:40:38.561Z,84.50
2023-05-19T10:43:25.999Z,83.00
2023-05-19T10:45:58.036Z,82.70
2023-05-19T10:48:26.318Z,83.20
2023-05-19T10:50:57.698Z,83.50
2023-05-19T10:53:34.866Z,83.80
2023-05-19T10:58:51.720Z,83.60
2023-05-19T11:01:22.167Z,82.20
2023-05-19T11:03:53.562Z,82.90
2023-05-19T11:06:28.365Z,82.70
2023-05-19T11:09:01.913Z,82.70
2023-05-19T11:11:48.012Z,81.60
2023-05-19T11:14:22.940Z,80.60
2023-05-19T11:16:58.842Z,81.40
2023-05-19T11:21:03.996Z,80.70
2023-05-19T11:24:59.013Z,79.50
2023-05-19T11:27:50.990Z,79.60
2023-05-19T12:03:39.742Z,73.70
2023-05-19T12:06:08.679Z,76.00
2023-05-19T12:08:40.738Z,77.00
2023-05-19T12:11:09.039Z,76.40
2023-05-19T12:13:37.826Z,76.80
2023-05-19T12:16:07.772Z,76.70
2023-05-19T12:18:40.280Z,75.80
2023-05-19T12:21:10.960Z,75.90
2023-05-19T12:23:40.043Z,76.20
2023-05-19T12:26:09.045Z,75.90
2023-05-19T12:28:37.431Z,75.60
2023-05-19T12:31:08.827Z,75.70
2023-05-19T12:33:40.689Z,74.50
2023-05-19T12:36:09.695Z,73.70
2023-05-19T12:38:39.603Z,73.60
2023-05-19T12:41:08.064Z,73.60
2023-05-19T12:43:37.636Z,73.90
2023-05-19T12:46:22.704Z,73.80
2023-05-19T12:48:52.648Z,72.50
2023-05-19T12:51:21.188Z,73.90
2023-05-19T12:53:52.007Z,73.60
2023-05-19T12:56:21.190Z,73.70
2023-05-19T12:58:55.583Z,73.90
2023-05-19T13:01:24.555Z,73.20
2023-05-19T13:03:54.395Z,73.00
2023-05-19T13:06:23.087Z,71.80
2023-05-19T13:08:51.396Z,72.00
2023-05-19T13:11:19.699Z,71.10
2023-05-19T13:13:47.981Z,70.30
2023-05-19T13:16:16.370Z,70.20
2023-05-19T13:18:44.766Z,71.70
2023-05-19T13:21:15.043Z,72.20
2023-05-19T13:23:43.280Z,71.70
2023-05-19T13:26:20.205Z,71.10
2023-05-19T13:28:49.848Z,69.90
2023-05-19T13:31:20.928Z,70.30
2023-05-19T13:34:07.170Z,69.60
2023-05-19T13:36:36.827Z,70.70
2023-05-19T13:39:05.210Z,71.10
2023-05-19T13:49:11.873Z,69.20
2023-05-19T13:51:44.657Z,70.10
2023-05-19T13:54:12.884Z,70.20
2023-05-19T13:56:41.210Z,70.30
2023-05-19T13:59:09.404Z,70.70
2023-05-19T14:01:38.055Z,70.30
2023-05-19T14:04:07.213Z,70.50
2023-05-19T14:06:35.617Z,70.50
2023-05-19T14:09:07.369Z,70.00
2023-05-19T14:11:35.790Z,69.30
2023-05-19T14:14:04.429Z,69.00
2023-05-19T14:16:32.910Z,69.40
2023-05-19T14:19:01.329Z,69.30
2023-05-19T14:21:29.524Z,69.70
2023-05-19T14:23:58.057Z,69.70
2023-05-19T14:26:29.311Z,68.70
2023-05-19T14:28:57.963Z,68.10
2023-05-19T14:31:31.916Z,69.40
2023-05-19T14:34:24.890Z,68.40
2023-05-19T14:36:56.788Z,68.50
2023-05-19T14:39:51.079Z,68.50
2023-05-19T14:42:20.713Z,67.70
2023-05-19T14:45:51.815Z,68.90
2023-05-19T14:52:09.340Z,69.40
2023-05-19T15:00:28.469Z,66.80
2023-05-19T15:03:07.475Z,66.90
2023-05-19T15:05:52.192Z,67.10
2023-05-19T15:08:23.510Z,67.40
2023-05-19T15:15:42.322Z,66.50
2023-05-19T15:24:00.144Z,64.30
2023-05-19T15:26:35.642Z,65.30
2023-05-19T15:29:04.139Z,65.30
2023-05-19T15:31:32.476Z,65.10
2023-05-19T15:34:24.265Z,64.80
2023-05-19T15:37:09.190Z,64.40
2023-05-19T15:39:37.318Z,64.40
2023-05-19T15:42:05.749Z,65.00
2023-05-19T15:44:34.455Z,64.20
2023-05-19T15:47:03.021Z,62.30
2023-05-19T15:49:31.212Z,61.60
2023-05-19T15:52:02.173Z,60.80
2023-05-19T15:54:30.401Z,61.40
2023-05-19T15:56:58.626Z,61.90
2023-05-19T15:59:36.391Z,61.80
2023-05-19T16:02:16.702Z,61.30
2023-05-19T16:04:45.202Z,61.70
2023-05-19T16:07:16.690Z,61.80
2023-05-19T16:09:44.962Z,60.90
2023-05-19T16:12:13.482Z,61.80
2023-05-19T16:14:43.143Z,61.30
2023-05-19T16:17:13.680Z,60.80
2023-05-19T16:19:41.858Z,60.00
2023-05-19T16:22:49.801Z,60.10
2023-05-19T16:25:18.290Z,59.40
2023-05-19T16:27:47.049Z,60.10
2023-05-19T16:30:38.630Z,59.90
2023-05-19T16:34:15.175Z,59.70
2023-05-19T16:41:18.615Z,59.30
2023-05-19T16:43:46.717Z,59.50
2023-05-19T16:46:24.188Z,59.20
2023-05-19T16:48:52.488Z,59.20
2023-05-19T16:51:20.750Z,59.30
2023-05-19T16:53:50.765Z,59.30
2023-05-19T16:56:21.707Z,59.10
2023-05-19T16:58:49.947Z,59.10
2023-05-19T17:01:18.332Z,59.00
2023-05-19T17:03:46.518Z,58.90
2023-05-19T17:06:14.753Z,58.80
2023-05-19T17:08:42.897Z,58.60
2023-05-19T17:11:11.199Z,58.90
2023-05-19T17:13:43.384Z,59.60
2023-05-19T17:16:17.515Z,58.70
2023-05-19T17:18:47.860Z,58.60
2023-05-19T17:21:16.259Z,58.40
2023-05-19T17:23:44.846Z,58.20
2023-05-19T17:26:13.078Z,58.40
2023-05-19T17:28:42.538Z,58.40
2023-05-19T17:31:11.934Z,58.60
2023-05-19T17:33:40.238Z,58.30
2023-05-19T17:36:09.390Z,59.20
2023-05-19T17:38:40.147Z,58.70
2023-05-19T17:41:10.815Z,58.70
2023-05-19T17:43:40.510Z,58.70
2023-05-19T17:46:11.469Z,58.90
2023-05-19T17:48:40.571Z,59.00
2023-05-19T17:51:08.778Z,58.70
2023-05-19T17:53:56.244Z,58.70
2023-05-19T17:56:25.574Z,58.70
2023-05-19T17:58:54.599Z,58.70
2023-05-19T18:01:25.780Z,58.50
2023-05-19T18:03:54.909Z,58.60
2023-05-19T18:06:40.066Z,58.60
2023-05-19T18:09:13.041Z,58.50
2023-05-19T18:11:41.396Z,58.50
2023-05-19T18:14:09.576Z,58.70
2023-05-19T18:16:39.359Z,58.80
2023-05-19T18:19:07.592Z,58.90
2023-05-19T18:21:35.954Z,59.00
2023-05-19T18:24:05.365Z,59.20
2023-05-19T18:26:34.085Z,59.40
2023-05-19T18:29:04.847Z,59.50
2023-05-19T18:31:33.042Z,59.50
2023-05-19T18:34:04.945Z,59.60
2023-05-19T18:36:34.925Z,59.50
2023-05-19T18:39:04.391Z,59.70
2023-05-19T18:41:32.914Z,59.90
2023-05-19T18:44:03.698Z,59.90
2023-05-19T18:46:31.889Z,60.00
2023-05-19T18:49:00.024Z,60.00
2023-05-19T18:51:29.887Z,59.80
2023-05-19T18:53:58.068Z,60.10
2023-05-19T18:56:30.967Z,60.10
2023-05-19T18:58:59.078Z,60.20
2023-05-19T19:01:27.313Z,60.10
2023-05-19T19:03:55.920Z,60.40
2023-05-19T19:06:24.015Z,60.40
2023-05-19T19:08:53.511Z,60.40
2023-05-19T19:11:24.617Z,60.50
2023-05-19T19:13:55.461Z,60.50
2023-05-19T19:16:23.940Z,60.50
2023-05-19T19:18:52.193Z,61.80
2023-05-19T19:21:22.740Z,60.80
2023-05-19T19:23:51.053Z,60.90
2023-05-19T19:26:20.819Z,61.00
2023-05-19T19:28:49.032Z,61.20
2023-05-19T19:31:17.229Z,61.30
2023-05-19T19:35:15.561Z,61.60
2023-05-19T19:38:41.945Z,61.40
2023-05-19T19:41:33.310Z,61.90
2023-05-19T19:44:53.558Z,61.80
2023-05-19T19:47:22.236Z,61.90
2023-05-19T19:49:50.750Z,62.30
2023-05-19T19:52:19.052Z,62.40
2023-05-19T19:54:53.051Z,62.50
2023-05-19T19:57:26.838Z,62.70
2023-05-19T20:00:11.009Z,62.80
2023-05-19T20:02:51.706Z,62.90
2023-05-19T20:06:00.424Z,63.20
2023-05-19T20:12:47.834Z,63.70
2023-05-19T20:15:16.709Z,63.60
2023-05-19T20:17:45.131Z,63.70
2023-05-19T20:20:18.770Z,63.70
2023-05-19T20:22:49.647Z,63.80
2023-05-19T20:25:18.152Z,63.90
2023-05-19T20:27:48.067Z,64.20
2023-05-19T20:30:16.486Z,64.30
2023-05-19T20:32:46.563Z,64.40
2023-05-19T20:35:17.688Z,64.30
2023-05-19T20:37:48.002Z,64.50
2023-05-19T20:40:16.730Z,64.80
2023-05-19T20:43:03.510Z,64.90
2023-05-19T20:46:43.983Z,65.10
2023-05-19T20:50:17.436Z,65.40
2023-05-19T20:52:45.983Z,65.60
2023-05-19T20:55:42.163Z,65.80
2023-05-19T20:58:51.249Z,65.90
2023-05-19T21:02:07.459Z,66.10
2023-05-19T21:04:35.939Z,65.80
2023-05-19T21:07:58.662Z,65.90
2023-05-19T21:10:32.526Z,66.20
2023-05-19T21:13:01.035Z,66.00
2023-05-19T21:15:51.643Z,66.20
2023-05-19T21:19:21.153Z,66.40
2023-05-19T21:25:37.827Z,66.40
2023-05-19T21:28:06.434Z,66.70
2023-05-19T21:30:35.036Z,66.70
2023-05-19T21:33:07.942Z,66.60
2023-05-19T21:35:36.831Z,66.70
2023-05-19T21:38:15.652Z,66.70
2023-05-19T21:40:50.863Z,66.80
2023-05-19T21:43:19.395Z,66.80
2023-05-19T21:45:58.030Z,66.90
2023-05-19T21:48:29.539Z,66.80
2023-05-19T21:51:00.856Z,67.00
2023-05-19T21:53:29.152Z,67.20
2023-05-19T21:55:57.375Z,67.30
2023-05-19T21:58:25.703Z,67.40
2023-05-19T22:00:55.976Z,67.50
2023-05-19T22:03:24.538Z,67.80
2023-05-19T22:05:56.164Z,67.90
2023-05-19T22:08:27.304Z,68.00
2023-05-19T22:10:55.594Z,68.10
2023-05-19T22:13:23.825Z,68.20
2023-05-19T22:15:52.087Z,68.20
2023-05-19T22:18:20.403Z,68.60
2023-05-19T22:20:48.610Z,68.60
2023-05-19T22:23:18.339Z,68.30
2023-05-19T22:25:46.937Z,68.40
2023-05-19T22:28:15.202Z,68.60
2023-05-19T22:30:44.167Z,68.20
2023-05-19T22:33:13.573Z,68.30
2023-05-19T22:40:25.781Z,69.10
2023-05-19T22:44:20.208Z,69.30
2023-05-19T22:47:28.474Z,69.50
2023-05-19T22:51:18.302Z,69.50
2023-05-19T22:53:49.505Z,69.90
2023-05-19T22:56:19.123Z,69.90
2023-05-19T22:58:47.368Z,70.10
2023-05-19T23:01:17.079Z,70.30
2023-05-19T23:03:45.642Z,70.30
2023-05-19T23:06:14.017Z,70.40
2023-05-19T23:08:43.512Z,70.30
2023-05-19T23:11:13.036Z,70.50
2023-05-19T23:13:42.566Z,70.50
2023-05-19T23:16:10.871Z,70.50
2023-05-19T23:18:40.542Z,70.50
2023-05-19T23:21:08.849Z,70.80
2023-05-19T23:23:37.539Z,70.80
2023-05-19T23:26:05.850Z,70.80
2023-05-19T23:28:34.052Z,70.90
2023-05-19T23:31:03.705Z,71.10
2023-05-19T23:33:31.999Z,71.30
2023-05-19T23:36:01.199Z,71.30
2023-05-19T23:38:29.605Z,71.70
2023-05-19T23:40:57.817Z,71.70
2023-05-19T23:43:26.094Z,71.80
2023-05-19T23:45:54.540Z,72.10
2023-05-19T23:48:24.107Z,72.40
2023-05-19T23:50:52.392Z,72.30
2023-05-19T23:53:20.736Z,72.50
2023-05-19T23:55:48.928Z,72.70
2023-05-19T23:58:17.191Z,72.90
